Time;durP1;ratioP1;P1;durP2;ratioP2;P2;SDS_P1;SDS_P2;PMS_P1;PMS_P2;Temp;Humidity;BMP_temperature;BMP_pressure;BME280_temperature;BME280_humidity;BME280_pressure;Samples;Min_cycle;Max_cycle;Signal;HPM_P1;HPM_P2
2020/12/30 00:00:51;;;;;;;;;0.00;0.00;21.70;71.70;;;20.06;53.49;102372.09;5092993;28;9567;-57
2020/12/30 00:03:18;;;;;;;;;0.20;0.20;21.60;71.60;;;20.05;54.14;102370.41;5096204;28;8786;-55
2020/12/30 00:05:45;;;;;;;;;0.00;0.00;21.70;70.70;;;20.05;54.21;102367.75;5101829;28;8785;-54
2020/12/30 00:08:12;;;;;;;;;2.00;1.00;21.70;70.80;;;20.02;51.68;102365.28;5102728;28;8850;-59
2020/12/30 00:10:39;;;;;;;;;0.00;0.00;21.70;70.60;;;20.02;53.67;102375.16;5102750;28;8806;-58
2020/12/30 00:13:06;;;;;;;;;0.80;0.80;21.60;71.10;;;20.02;54.00;102380.53;5076805;28;8831;-58
2020/12/30 00:15:33;;;;;;;;;1.00;1.00;21.70;71.50;;;19.99;53.52;102376.25;5090466;28;8796;-58
2020/12/30 00:18:00;;;;;;;;;0.00;0.00;21.70;71.80;;;19.99;53.98;102383.47;5093176;28;8811;-58
2020/12/30 00:20:27;;;;;;;;;1.00;1.00;21.60;71.60;;;19.99;53.59;102394.19;5099391;28;8792;-58
2020/12/30 00:22:54;;;;;;;;;1.00;1.00;21.70;71.40;;;19.98;54.64;102385.28;5068974;28;8819;-58
2020/12/30 00:25:21;;;;;;;;;1.00;1.00;21.80;72.00;;;19.98;53.01;102398.72;5084192;28;8815;-58
2020/12/30 00:27:47;;;;;;;;;1.60;1.00;21.80;71.90;;;19.99;52.79;102396.88;5084630;28;8772;-56
2020/12/30 00:30:17;;;;;;;;;2.40;1.00;21.60;71.40;;;19.99;53.00;102404.91;5085368;28;8794;-57
2020/12/30 00:32:47;;;;;;;;;0.00;0.00;21.40;71.00;;;19.95;54.17;102397.13;5089676;28;8866;-57
2020/12/30 00:35:16;;;;;;;;;1.40;1.40;21.60;71.40;;;19.96;53.90;102403.34;5090201;28;8792;-56
2020/12/30 00:37:44;;;;;;;;;1.20;1.00;21.40;71.10;;;19.95;53.23;102396.28;5093205;28;8892;-57
2020/12/30 00:40:11;;;;;;;;;1.60;1.00;21.40;70.20;;;19.94;52.82;102403.44;5091040;28;8846;-57
2020/12/30 00:42:39;;;;;;;;;3.00;2.80;21.50;70.30;;;19.93;53.79;102420.53;5097882;28;8783;-56
2020/12/30 00:45:09;;;;;;;;;1.00;1.00;21.50;70.10;;;19.92;53.07;102409.91;5099547;28;9481;-56
2020/12/30 00:47:36;;;;;;;;;1.00;1.00;21.30;70.20;;;19.89;52.64;102424.41;5106902;28;8785;-57
2020/12/30 00:50:07;;;;;;;;;3.60;3.60;21.80;70.60;;;19.89;52.77;102423.56;5086162;28;8783;-57
2020/12/30 00:52:35;;;;;;;;;1.00;1.00;21.50;70.10;;;19.88;53.20;102421.88;5085507;28;8814;-57
2020/12/30 00:55:04;;;;;;;;;1.80;1.00;21.30;70.00;;;19.85;53.85;102411.41;5086727;28;9487;-57
2020/12/30 00:57:31;;;;;;;;;2.00;1.40;21.50;70.10;;;19.82;51.83;102422.34;5092766;28;8844;-57
2020/12/30 00:59:58;;;;;;;;;1.00;1.00;21.50;70.10;;;19.82;51.98;102430.41;5092123;28;8864;-57
2020/12/30 01:02:25;;;;;;;;;1.00;1.00;21.30;69.90;;;19.82;52.24;102443.81;5104270;28;9599;-57
2020/12/30 01:04:51;;;;;;;;;1.60;1.40;21.50;70.10;;;19.80;52.40;102435.91;5093509;28;8780;-58
2020/12/30 01:07:18;;;;;;;;;0.80;0.80;21.50;70.20;;;19.79;51.74;102438.69;5085584;28;8790;-57
2020/12/30 01:09:45;;;;;;;;;2.60;2.00;21.50;69.90;;;19.77;52.52;102430.78;5086603;28;8776;-57
2020/12/30 01:12:12;;;;;;;;;3.00;3.00;21.40;70.10;;;19.76;51.92;102450.50;5085873;28;8884;-57
2020/12/30 01:14:40;;;;;;;;;1.80;1.80;21.40;70.00;;;19.73;52.09;102446.25;5113976;28;8777;-58
2020/12/30 01:17:06;;;;;;;;;1.00;1.00;21.50;69.90;;;19.71;51.60;102448.19;5106419;28;8953;-57
2020/12/30 01:19:33;;;;;;;;;1.20;1.20;21.40;70.10;;;19.69;51.71;102436.75;5082200;28;8817;-57
2020/12/30 01:22:00;;;;;;;;;2.00;2.00;21.30;70.10;;;19.66;51.62;102455.69;5079060;28;8794;-57
2020/12/30 01:24:27;;;;;;;;;3.00;2.00;21.30;70.20;;;19.64;51.95;102452.31;5075230;28;8786;-56
2020/12/30 01:26:54;;;;;;;;;1.00;1.00;21.40;70.30;;;19.59;52.32;102462.53;5088234;28;8784;-57
2020/12/30 01:29:20;;;;;;;;;1.20;1.00;21.20;70.50;;;19.58;52.03;102471.53;5090303;28;8816;-54
2020/12/30 01:31:47;;;;;;;;;1.00;1.00;21.20;70.30;;;19.54;51.76;102467.41;5089108;28;8886;-57
2020/12/30 01:34:14;;;;;;;;;1.20;1.20;21.10;70.20;;;19.50;51.74;102469.44;5093422;28;8799;-56
2020/12/30 01:36:41;;;;;;;;;1.20;1.20;21.20;70.00;;;19.46;52.25;102473.34;5093174;28;8943;-56
2020/12/30 01:39:08;;;;;;;;;3.20;3.00;21.10;70.00;;;19.44;52.66;102475.31;5091894;28;8796;-55
2020/12/30 01:41:35;;;;;;;;;2.00;1.60;21.00;70.30;;;19.42;52.54;102481.75;5087370;28;8798;-56
2020/12/30 01:44:08;;;;;;;;;2.00;1.60;21.00;70.50;;;19.40;52.51;102484.53;5092145;28;8778;-55
2020/12/30 01:46:47;;;;;;;;;1.00;1.00;21.10;70.30;;;19.38;52.55;102490.97;5093199;28;8878;-56
2020/12/30 01:49:17;;;;;;;;;1.00;1.00;21.00;70.50;;;19.36;52.40;102490.25;5090792;28;8779;-57
2020/12/30 01:51:44;;;;;;;;;2.00;1.00;21.00;70.20;;;19.34;53.22;102489.53;5091924;28;8787;-56
2020/12/30 01:54:16;;;;;;;;;1.00;1.00;20.80;70.30;;;19.31;52.66;102493.28;5078324;28;8842;-55
2020/12/30 01:56:45;;;;;;;;;2.25;1.50;21.10;70.30;;;19.28;52.73;102491.69;5108974;28;8805;-57
2020/12/30 01:59:16;;;;;;;;;1.20;1.20;20.90;70.30;;;19.25;52.71;102483.03;5102020;28;9500;-57
2020/12/30 02:02:07;;;;;;;;;2.40;1.40;20.80;70.20;;;19.20;49.89;102488.72;5086968;28;8845;-55
2020/12/30 02:04:57;;;;;;;;;0.60;0.60;21.00;69.10;;;19.14;50.75;102483.84;5088965;28;8924;-54
2020/12/30 02:07:25;;;;;;;;;0.80;0.80;20.70;71.40;;;19.19;51.94;102489.72;5082402;28;9492;-57
2020/12/30 02:09:56;;;;;;;;;1.00;1.00;20.60;70.20;;;19.22;51.27;102492.16;5093009;28;8868;-55
2020/12/30 02:12:23;;;;;;;;;1.00;1.00;21.00;70.30;;;19.29;51.90;102496.06;5071983;28;9540;-57
2020/12/30 02:14:51;;;;;;;;;1.00;1.00;20.80;69.90;;;19.35;50.94;102497.44;5086860;28;8909;-57
2020/12/30 02:17:18;;;;;;;;;1.00;1.00;21.10;69.10;;;19.43;50.19;102507.56;5090575;28;8847;-56
2020/12/30 02:19:47;;;;;;;;;0.00;0.00;21.30;69.00;;;19.48;51.38;102497.34;5084704;28;8880;-56
2020/12/30 02:22:23;;;;;;;;;1.00;0.00;21.30;69.20;;;19.51;53.50;102497.09;5090338;28;8829;-56
2020/12/30 02:24:50;;;;;;;;;0.00;0.00;21.40;68.80;;;19.49;52.28;102509.78;5090977;28;8768;-56
2020/12/30 02:27:17;;;;;;;;;0.00;0.00;21.30;68.50;;;19.47;51.58;102511.72;5090922;28;8856;-56
2020/12/30 02:29:43;;;;;;;;;0.40;0.40;21.10;68.10;;;19.45;51.07;102516.34;5092745;28;8806;-55
2020/12/30 02:32:10;;;;;;;;;2.00;1.80;21.10;68.50;;;19.42;50.48;102522.81;5091971;28;8821;-56
2020/12/30 02:34:37;;;;;;;;;0.00;0.00;21.10;69.60;;;19.48;50.56;102532.19;5091501;28;9517;-56
2020/12/30 02:37:04;;;;;;;;;0.00;0.00;20.90;69.40;;;19.50;50.41;102530.25;5092031;28;8909;-57
2020/12/30 02:39:30;;;;;;;;;0.00;0.00;21.10;69.20;;;19.49;51.48;102534.78;5094138;28;8816;-55
2020/12/30 02:41:57;;;;;;;;;1.00;0.00;21.20;69.30;;;19.49;53.75;102533.91;5093613;28;10072;-58
2020/12/30 02:44:24;;;;;;;;;0.80;0.00;21.00;68.60;;;19.47;51.25;102525.13;5095247;28;9614;-57
2020/12/30 02:46:51;;;;;;;;;0.00;0.00;21.00;68.30;;;19.42;49.60;102517.44;5098626;28;8846;-56
2020/12/30 02:49:18;;;;;;;;;1.00;1.00;21.10;68.30;;;19.46;51.23;102526.09;5093182;28;8780;-58
2020/12/30 02:51:45;;;;;;;;;1.00;1.00;21.00;69.40;;;19.47;50.95;102520.63;5095677;28;8776;-57
2020/12/30 02:54:12;;;;;;;;;1.00;0.00;21.10;69.70;;;19.47;51.54;102517.94;5091985;28;8772;-56
2020/12/30 02:56:39;;;;;;;;;3.00;3.00;21.10;69.40;;;19.47;52.58;102522.44;5093032;28;8904;-58
2020/12/30 02:59:07;;;;;;;;;0.80;0.80;21.10;69.00;;;19.46;50.71;102534.13;5091065;28;8752;-58
2020/12/30 03:01:33;;;;;;;;;1.40;1.40;21.00;68.40;;;19.43;49.20;102534.38;5083281;28;8816;-57
2020/12/30 03:04:00;;;;;;;;;1.00;1.00;21.00;69.20;;;19.46;49.92;102539.50;5088248;28;8806;-57
2020/12/30 03:06:27;;;;;;;;;0.00;0.00;21.00;69.10;;;19.48;49.74;102545.59;5087074;28;8807;-55
2020/12/30 03:08:54;;;;;;;;;1.00;1.00;21.10;68.70;;;19.47;49.06;102547.41;5090006;28;8786;-58
2020/12/30 03:11:21;;;;;;;;;1.00;1.00;21.30;68.10;;;19.47;50.84;102552.78;5092585;28;8819;-57
2020/12/30 03:13:49;;;;;;;;;0.40;0.40;21.10;68.50;;;19.44;49.19;102558.38;5083100;28;8784;-57
2020/12/30 03:16:16;;;;;;;;;2.00;1.00;21.00;68.60;;;19.46;49.13;102553.78;5091040;28;8794;-58
2020/12/30 03:18:43;;;;;;;;;2.50;1.00;20.90;68.00;;;19.51;49.48;102564.13;5092442;28;8776;-58
2020/12/30 03:21:09;;;;;;;;;1.00;1.00;21.10;68.70;;;19.58;50.48;102573.41;5091984;28;8916;-58
2020/12/30 03:23:37;;;;;;;;;1.00;1.00;21.10;68.70;;;19.60;51.18;102571.47;5092295;28;8913;-58
2020/12/30 03:26:03;;;;;;;;;1.00;1.00;21.30;67.90;;;19.61;50.14;102564.28;5087010;28;8902;-58
2020/12/30 03:28:30;;;;;;;;;1.00;1.00;21.50;67.70;;;19.62;49.59;102566.84;5088605;28;8791;-58
2020/12/30 03:30:57;;;;;;;;;0.60;0.60;21.50;67.50;;;19.62;51.81;102566.84;5090610;28;8815;-58
2020/12/30 03:33:24;;;;;;;;;1.00;0.40;21.30;67.50;;;19.61;50.51;102562.44;5089193;28;9499;-57
2020/12/30 03:35:51;;;;;;;;;1.00;1.00;21.30;68.40;;;19.67;49.84;102569.22;5089813;28;8820;-57
2020/12/30 03:38:17;;;;;;;;;0.80;0.80;21.30;68.30;;;19.74;50.46;102565.06;5088757;28;8799;-56
2020/12/30 03:40:44;;;;;;;;;1.00;1.00;21.40;68.40;;;19.75;52.06;102563.28;5084242;28;8898;-58
2020/12/30 03:43:11;;;;;;;;;0.80;0.80;21.60;68.00;;;19.76;49.29;102573.00;5089207;28;8824;-57
2020/12/30 03:45:38;;;;;;;;;1.80;1.00;21.50;67.40;;;19.73;50.01;102574.94;5087656;28;8784;-55
2020/12/30 03:48:05;;;;;;;;;0.80;0.00;21.40;67.50;;;19.73;48.74;102577.63;5093650;28;8790;-57
2020/12/30 03:50:32;;;;;;;;;0.00;0.00;21.50;67.20;;;19.72;50.08;102572.41;5095044;28;8846;-56
2020/12/30 03:52:58;;;;;;;;;1.00;1.00;21.50;67.50;;;19.68;48.27;102577.13;5103440;28;8780;-57
2020/12/30 03:55:25;;;;;;;;;0.20;0.20;21.20;66.40;;;19.71;49.25;102581.41;5106477;28;8782;-55
2020/12/30 03:57:52;;;;;;;;;0.80;0.80;21.30;68.20;;;19.77;49.19;102580.94;5091131;28;10824;-57
2020/12/30 04:00:19;;;;;;;;;0.00;0.00;21.40;68.00;;;19.79;49.96;102578.13;5091818;28;8772;-58
2020/12/30 04:02:46;;;;;;;;;1.40;1.00;21.30;67.80;;;19.78;50.43;102574.59;5094380;28;8821;-57
2020/12/30 04:05:13;;;;;;;;;1.00;0.00;21.30;66.70;;;19.78;49.35;102576.44;5089952;28;8799;-57
2020/12/30 04:07:39;;;;;;;;;0.80;0.80;21.50;66.40;;;19.77;49.65;102575.59;5090922;28;8796;-57
2020/12/30 04:10:06;;;;;;;;;1.00;1.00;21.50;66.20;;;19.76;48.20;102578.38;5092259;28;8776;-55
2020/12/30 04:12:33;;;;;;;;;1.40;1.00;21.50;66.50;;;19.74;48.90;102578.47;5091261;28;8771;-58
2020/12/30 04:15:00;;;;;;;;;3.00;1.00;21.40;66.70;;;19.74;49.43;102583.84;5092343;28;8761;-56
2020/12/30 04:17:27;;;;;;;;;0.20;0.20;21.40;66.70;;;19.73;49.77;102588.34;5093426;28;8909;-55
2020/12/30 04:19:53;;;;;;;;;1.00;1.00;21.60;67.20;;;19.71;48.96;102595.66;5093347;28;9524;-58
2020/12/30 04:22:20;;;;;;;;;1.00;1.00;21.50;67.10;;;19.72;49.94;102604.59;5092784;28;8806;-55
2020/12/30 04:24:47;;;;;;;;;2.00;1.60;21.40;67.10;;;19.71;49.53;102598.34;5091983;28;8772;-55
2020/12/30 04:27:14;;;;;;;;;0.40;0.40;21.40;67.70;;;19.69;51.13;102597.63;5091655;28;8819;-55
2020/12/30 04:29:41;;;;;;;;;1.00;1.00;21.20;67.60;;;19.68;51.10;102589.69;5093507;28;9564;-56
2020/12/30 04:32:08;;;;;;;;;1.40;1.40;21.50;67.90;;;19.69;49.38;102586.03;5092787;28;8764;-58
2020/12/30 04:34:35;;;;;;;;;1.60;1.00;21.30;68.20;;;19.66;49.83;102588.91;5089887;28;8806;-58
2020/12/30 04:37:01;;;;;;;;;1.80;1.00;21.30;68.50;;;19.65;50.43;102593.44;5092722;28;9563;-58
2020/12/30 04:39:28;;;;;;;;;1.00;1.00;21.20;68.10;;;19.64;50.33;102594.41;5091046;28;9469;-57
2020/12/30 04:42:00;;;;;;;;;0.80;0.80;21.30;69.10;;;19.64;50.58;102599.78;5090246;28;8848;-55
2020/12/30 04:44:34;;;;;;;;;0.20;0.20;21.30;68.70;;;19.62;49.78;102604.38;5072367;28;8991;-57
2020/12/30 04:47:03;;;;;;;;;1.00;1.00;21.30;68.80;;;19.62;50.20;102609.75;5057656;28;9562;-57
2020/12/30 04:49:31;;;;;;;;;2.40;2.00;21.20;68.50;;;19.62;50.66;102609.75;5089595;28;8853;-55
2020/12/30 04:51:58;;;;;;;;;0.60;0.40;21.30;68.60;;;19.59;49.52;102603.75;5068328;28;8812;-58
2020/12/30 04:54:25;;;;;;;;;1.00;1.00;21.10;68.20;;;19.54;48.59;102604.13;5082311;28;8844;-57
2020/12/30 04:57:00;;;;;;;;;1.00;1.00;21.10;67.50;;;19.47;46.49;102600.19;5085087;28;8858;-57
2020/12/30 04:59:29;;;;;;;;;1.00;1.00;21.20;66.60;;;19.47;48.70;102597.50;5086196;28;9573;-55
2020/12/30 05:02:11;;;;;;;;;1.00;1.00;21.10;67.20;;;19.51;48.23;102583.75;5087812;28;8960;-57
2020/12/30 05:04:40;;;;;;;;;0.40;0.40;21.20;66.80;;;19.56;49.31;102583.38;5082278;28;8783;-55
2020/12/30 05:07:13;;;;;;;;;1.20;0.00;21.00;67.30;;;19.57;51.11;102574.41;5087675;28;8784;-56
2020/12/30 05:09:44;;;;;;;;;1.00;0.80;21.30;66.40;;;19.58;49.64;102586.81;5092036;28;8872;-57
2020/12/30 05:12:18;;;;;;;;;1.00;1.00;21.30;65.60;;;19.57;48.04;102585.13;5095921;28;8802;-58
2020/12/30 05:14:46;;;;;;;;;0.00;0.00;21.30;65.90;;;19.54;46.85;102585.34;5076380;28;8815;-55
2020/12/30 05:17:16;;;;;;;;;1.00;1.00;21.30;65.40;;;19.57;47.81;102590.47;5071848;28;8835;-58
2020/12/30 05:19:45;;;;;;;;;1.40;1.00;21.10;66.80;;;19.61;48.41;102589.25;5087687;28;8756;-57
2020/12/30 05:22:21;;;;;;;;;0.00;0.00;21.30;66.60;;;19.62;50.66;102585.63;5090382;28;8803;-57
2020/12/30 05:24:49;;;;;;;;;1.00;1.00;21.30;67.80;;;19.63;48.15;102589.16;5080201;28;8772;-58
2020/12/30 05:27:17;;;;;;;;;0.80;0.80;21.50;65.50;;;19.63;47.32;102589.16;5092054;28;8784;-57
2020/12/30 05:29:51;;;;;;;;;0.00;0.00;21.50;65.30;;;19.59;47.43;102585.84;5083987;28;8887;-56
2020/12/30 05:32:19;;;;;;;;;0.40;0.40;21.40;65.30;;;19.60;47.23;102595.59;5088232;28;8792;-58
2020/12/30 05:34:47;;;;;;;;;0.00;0.00;21.30;65.90;;;19.58;47.43;102600.22;5091261;28;8764;-57
2020/12/30 05:37:17;;;;;;;;;0.00;0.00;21.40;65.80;;;19.56;48.33;102594.09;5090659;28;8908;-55
2020/12/30 05:39:44;;;;;;;;;0.20;0.20;21.20;66.00;;;19.56;48.13;102593.25;5081500;28;8794;-57
2020/12/30 05:42:20;;;;;;;;;1.00;1.00;21.20;66.00;;;19.51;46.30;102612.38;5091308;28;8814;-56
2020/12/30 05:44:52;;;;;;;;;1.00;1.00;21.20;65.20;;;19.50;48.66;102603.47;5088780;28;9491;-57
2020/12/30 05:47:27;;;;;;;;;0.00;0.00;21.30;67.40;;;19.55;49.27;102608.50;5091025;28;9569;-57
2020/12/30 05:49:57;;;;;;;;;1.00;1.00;21.20;67.70;;;19.58;49.39;102612.78;5073962;28;8791;-57
2020/12/30 05:52:27;;;;;;;;;0.60;0.60;21.20;66.50;;;19.56;47.82;102604.84;5091762;28;8792;-57
2020/12/30 05:55:02;;;;;;;;;0.40;0.40;21.50;65.70;;;19.55;47.18;102599.59;5092928;28;8796;-57
2020/12/30 05:57:38;;;;;;;;;0.00;0.00;21.40;65.90;;;19.70;50.51;102593.97;5084062;28;8800;-50
2020/12/30 06:00:12;;;;;;;;;0.00;0.00;21.40;66.60;;;20.08;47.91;102595.53;5087698;28;8873;-62
2020/12/30 06:02:45;;;;;;;;;1.00;0.00;21.50;65.60;;;19.95;47.45;102589.41;5093872;28;8808;-62
2020/12/30 06:05:22;;;;;;;;;1.00;1.00;21.50;66.00;;;19.90;48.53;102592.44;5100647;28;8778;-61
2020/12/30 06:07:53;;;;;;;;;0.00;0.00;21.20;66.20;;;19.86;47.57;102598.16;5096671;28;8851;-63
2020/12/30 06:10:22;;;;;;;;;0.40;0.40;21.20;66.10;;;19.81;47.71;102593.13;5097772;28;8794;-62
2020/12/30 06:12:57;;;;;;;;;1.00;0.40;21.10;66.40;;;19.77;47.89;102590.78;5075004;28;8788;-62
2020/12/30 06:15:27;;;;;;;;;0.00;0.00;21.30;66.70;;;19.75;47.63;102592.78;5099269;28;8791;-62
2020/12/30 06:18:02;;;;;;;;;0.00;0.00;21.00;66.50;;;19.70;48.31;102591.28;5096652;28;8872;-64
2020/12/30 06:20:36;;;;;;;;;0.00;0.00;21.10;66.50;;;19.67;48.74;102596.88;5096302;28;8753;-62
2020/12/30 06:23:15;;;;;;;;;0.40;0.40;21.20;66.70;;;19.65;48.56;102593.44;5096307;28;8792;-61
2020/12/30 06:25:49;;;;;;;;;1.00;0.20;21.20;66.70;;;19.63;49.15;102602.56;5091839;28;8812;-62
2020/12/30 06:28:22;;;;;;;;;0.00;0.00;21.10;66.50;;;19.62;48.70;102604.38;5091959;28;8822;-62
2020/12/30 06:30:51;;;;;;;;;0.00;0.00;20.90;66.70;;;19.60;48.64;102603.63;5087723;28;9004;-62
2020/12/30 06:33:23;;;;;;;;;0.80;0.80;21.20;66.40;;;19.58;47.88;102600.22;5090782;28;8827;-61
2020/12/30 06:35:56;;;;;;;;;0.00;0.00;21.20;66.60;;;19.60;49.13;102605.47;5104384;28;8817;-61
2020/12/30 06:38:30;;;;;;;;;0.00;0.00;21.10;66.80;;;19.55;48.21;102608.50;5075147;28;8819;-62
2020/12/30 06:41:07;;;;;;;;;1.00;0.00;20.90;66.50;;;19.52;47.79;102601.53;5094574;28;8772;-60
2020/12/30 06:43:54;;;;;;;;;0.80;0.00;21.10;66.80;;;19.52;48.27;102598.84;5088714;28;8788;-60
2020/12/30 06:46:23;;;;;;;;;0.00;0.00;21.10;66.90;;;19.50;48.06;102591.91;5090162;28;9609;-60
2020/12/30 06:49:03;;;;;;;;;0.20;0.20;21.10;66.80;;;19.47;48.24;102592.16;5091912;28;8783;-61
2020/12/30 06:51:38;;;;;;;;;0.00;0.00;21.00;66.80;;;19.45;47.72;102583.34;5077052;28;8820;-60
2020/12/30 06:54:05;;;;;;;;;0.00;0.00;20.80;66.40;;;19.44;48.88;102595.06;5088598;28;9523;-60
2020/12/30 06:56:46;;;;;;;;;1.00;0.00;21.00;66.80;;;19.43;47.55;102583.47;5091052;28;8806;-59
2020/12/30 06:59:26;;;;;;;;;0.00;0.00;20.90;66.50;;;19.42;49.86;102583.59;5088836;28;8828;-57
2020/12/30 07:02:04;;;;;;;;;0.00;0.00;20.80;66.70;;;19.38;48.88;102582.94;5092642;28;8922;-59
2020/12/30 07:04:36;;;;;;;;;0.50;0.50;20.90;66.20;;;19.34;45.84;102594.03;5087907;28;8779;-59
2020/12/30 07:07:20;;;;;;;;;0.20;0.20;20.90;64.10;;;19.33;46.54;102586.94;5090137;28;8876;-58
2020/12/30 07:09:47;;;;;;;;;1.00;0.00;20.80;65.30;;;19.30;47.78;102580.84;5092659;28;8804;-59
2020/12/30 07:12:14;;;;;;;;;0.40;0.40;20.60;65.80;;;19.31;47.37;102581.72;5091624;28;8842;-59
2020/12/30 07:14:42;;;;;;;;;0.60;0.60;20.80;66.20;;;19.33;47.48;102581.59;5093768;28;8857;-59
2020/12/30 07:17:09;;;;;;;;;0.00;0.00;21.00;66.40;;;19.32;49.78;102579.91;5093779;28;8827;-59
2020/12/30 07:19:43;;;;;;;;;2.00;1.00;20.80;66.70;;;19.32;50.73;102583.41;5093622;28;8867;-58
2020/12/30 07:22:14;;;;;;;;;1.00;0.60;20.70;66.70;;;19.33;50.35;102581.59;5100653;28;8770;-59
2020/12/30 07:24:58;;;;;;;;;0.80;0.80;20.90;66.80;;;19.33;49.42;102584.28;5094038;28;8896;-59
2020/12/30 07:27:29;;;;;;;;;1.60;0.80;20.90;67.00;;;19.33;51.13;102581.59;5083489;28;8796;-59
2020/12/30 07:29:55;;;;;;;;;0.40;0.40;21.00;67.10;;;19.33;50.32;102581.59;5100716;28;8804;-59
2020/12/30 07:32:22;;;;;;;;;0.00;0.00;20.80;67.20;;;19.32;48.38;102570.03;5096071;28;8768;-59
2020/12/30 07:34:52;;;;;;;;;0.60;0.60;20.70;67.30;;;19.33;48.59;102568.19;5099422;28;8783;-59
2020/12/30 07:37:20;;;;;;;;;0.00;0.00;20.80;67.40;;;19.33;48.72;102554.78;5103122;28;8928;-59
2020/12/30 07:39:49;;;;;;;;;2.00;1.00;20.80;67.50;;;19.32;50.62;102553.94;5098382;28;8766;-59
2020/12/30 07:42:24;;;;;;;;;0.00;0.00;20.90;67.60;;;19.33;49.73;102550.28;5095674;28;8787;-59
2020/12/30 07:44:57;;;;;;;;;0.00;0.00;20.80;67.70;;;19.30;50.34;102554.03;5094246;28;8942;-59
2020/12/30 07:47:26;;;;;;;;;1.00;0.60;20.80;67.90;;;19.32;51.66;102553.09;5093073;28;8780;-59
2020/12/30 07:50:02;;;;;;;;;1.80;1.80;21.00;67.80;;;19.32;49.00;102553.09;5086918;28;8830;-59
2020/12/30 07:52:29;;;;;;;;;0.40;0.40;21.00;68.10;;;19.31;49.03;102541.53;5093469;28;8804;-59
2020/12/30 07:54:56;;;;;;;;;1.00;1.00;20.90;67.90;;;19.30;51.19;102550.53;5091004;28;8793;-59
2020/12/30 07:57:23;;;;;;;;;0.00;0.00;20.70;67.90;;;19.28;50.45;102550.66;5085360;28;8886;-59
2020/12/30 07:59:51;;;;;;;;;1.00;1.00;20.80;68.20;;;19.23;49.28;102562.66;5069368;28;8991;-59
2020/12/30 08:02:20;;;;;;;;;0.50;0.50;20.60;68.20;;;19.21;49.97;102570.84;5063724;28;8888;-59
2020/12/30 08:04:59;;;;;;;;;1.00;0.50;20.70;68.30;;;19.16;49.54;102581.03;5074602;28;8792;-59
2020/12/30 08:07:29;;;;;;;;;2.00;2.00;20.70;68.40;;;19.12;49.41;102586.72;5092679;28;8827;-58
2020/12/30 08:09:56;;;;;;;;;1.75;1.75;20.90;68.80;;;19.07;49.57;102589.75;5053866;28;8800;-59
2020/12/30 08:12:24;;;;;;;;;1.75;1.75;20.60;68.70;;;19.04;49.67;102596.19;5091580;28;8768;-57
2020/12/30 08:14:53;;;;;;;;;2.75;2.75;20.50;68.70;;;19.02;50.15;102598.09;5075972;28;8822;-58
2020/12/30 08:17:22;;;;;;;;;4.00;3.50;20.50;68.80;;;18.97;49.86;102588.69;5088747;28;9523;-59
2020/12/30 08:19:53;;;;;;;;;3.75;2.75;20.30;68.70;;;18.95;50.00;102598.66;5092622;28;8913;-59
2020/12/30 08:22:27;;;;;;;;;2.00;2.00;20.40;68.90;;;18.92;50.32;102602.41;5073904;28;10172;-59
2020/12/30 08:24:56;;;;;;;;;2.00;2.00;20.60;69.30;;;18.89;50.16;102599.13;5092371;28;8791;-58
2020/12/30 08:27:29;;;;;;;;;2.50;2.00;20.50;69.30;;;18.84;50.55;102602.97;5089439;28;8834;-59
2020/12/30 08:30:00;;;;;;;;;1.50;1.50;20.50;69.30;;;18.82;50.37;102596.88;5089186;28;8828;-59
2020/12/30 08:32:52;;;;;;;;;1.50;1.50;20.30;69.30;;;18.77;50.47;102596.34;5089494;28;8800;-59
2020/12/30 08:35:29;;;;;;;;;0.50;0.50;20.30;69.40;;;18.76;50.75;102593.81;5090101;28;8804;-59
2020/12/30 08:38:24;;;;;;;;;0.40;0.40;20.30;69.40;;;18.73;50.68;102599.34;5076005;28;8831;-59
2020/12/30 08:40:58;;;;;;;;;0.40;0.40;20.20;69.40;;;18.71;52.57;102594.09;5084568;28;8823;-59
2020/12/30 08:43:46;;;;;;;;;0.00;0.00;20.40;69.70;;;18.70;52.43;102588.84;5072674;28;8784;-59
2020/12/30 08:46:22;;;;;;;;;0.80;0.00;20.30;69.90;;;18.67;52.71;102584.56;5074326;28;8865;-59
2020/12/30 08:48:51;;;;;;;;;0.00;0.00;20.20;70.00;;;18.64;51.43;102588.31;5073099;28;8853;-59
2020/12/30 08:51:35;;;;;;;;;0.00;0.00;20.30;69.90;;;18.63;52.08;102600.00;5075733;28;8808;-59
2020/12/30 08:54:16;;;;;;;;;0.40;0.00;20.20;69.80;;;18.61;52.80;102609.94;5087376;28;9655;-58
2020/12/30 08:56:47;;;;;;;;;0.00;0.00;20.20;69.80;;;18.58;52.71;102595.94;5076911;28;8784;-59
2020/12/30 08:59:24;;;;;;;;;1.00;1.00;20.20;69.90;;;18.57;52.92;102594.22;5072484;28;8922;-59
2020/12/30 09:01:51;;;;;;;;;0.00;0.00;20.20;70.00;;;18.53;52.35;102595.41;5091288;28;8939;-59
2020/12/30 09:04:17;;;;;;;;;0.50;0.00;20.10;69.90;;;18.50;52.52;102599.16;5089313;28;8784;-59
2020/12/30 09:06:53;;;;;;;;;1.25;1.00;19.80;69.60;;;18.48;51.60;102601.09;5092106;28;8765;-59
2020/12/30 09:09:20;;;;;;;;;0.00;0.00;20.00;69.80;;;18.46;52.37;102599.47;5091280;28;8788;-59
2020/12/30 09:11:53;;;;;;;;;0.00;0.00;20.00;69.90;;;18.43;51.85;102598.72;5086670;28;9586;-59
2020/12/30 09:14:22;;;;;;;;;0.00;0.00;20.10;70.00;;;18.41;53.37;102600.66;5091425;28;8791;-59
2020/12/30 09:17:11;;;;;;;;;0.00;0.00;20.00;70.00;;;18.39;52.04;102605.28;5092159;28;9004;-59
2020/12/30 09:19:37;;;;;;;;;0.75;0.50;20.00;70.00;;;18.37;52.56;102603.69;5092214;28;8788;-59
2020/12/30 09:22:11;;;;;;;;;1.00;0.00;20.20;70.30;;;18.36;53.27;102608.16;5091355;28;8902;-59
2020/12/30 09:24:40;;;;;;;;;0.00;0.00;19.80;70.00;;;18.34;53.10;102604.75;5073290;28;8895;-59
2020/12/30 09:27:24;;;;;;;;;0.75;0.75;20.00;70.20;;;18.33;53.26;102616.41;5096348;28;8858;-59
2020/12/30 09:30:15;;;;;;;;;0.00;0.00;19.90;70.00;;;18.30;53.24;102607.75;5105063;28;8906;-59
2020/12/30 09:32:44;;;;;;;;;0.25;0.25;20.00;70.10;;;18.28;52.13;102618.53;5090759;28;8772;-59
2020/12/30 09:35:17;;;;;;;;;0.00;0.00;19.90;70.10;;;18.27;53.29;102619.50;5102315;28;8797;-59
2020/12/30 09:37:56;;;;;;;;;0.75;0.75;19.80;70.00;;;18.25;53.47;102620.56;5088393;28;8827;-59
2020/12/30 09:40:24;;;;;;;;;0.50;0.50;19.80;70.30;;;18.23;52.94;102631.38;5095609;28;9500;-59
2020/12/30 09:42:51;;;;;;;;;0.75;0.00;20.00;70.30;;;18.23;52.97;102631.38;5095081;28;9476;-59
2020/12/30 09:45:22;;;;;;;;;1.00;0.00;19.80;70.60;;;18.19;53.25;102624.50;5091430;28;8857;-59
2020/12/30 09:47:49;;;;;;;;;2.00;1.00;19.70;70.20;;;18.18;53.07;102633.50;5093985;28;8791;-59
2020/12/30 09:50:20;;;;;;;;;1.00;0.00;19.80;70.30;;;18.17;53.13;102640.69;5091399;28;8796;-59
2020/12/30 09:52:46;;;;;;;;;0.00;0.00;19.80;70.30;;;18.15;52.69;102650.63;5092721;28;8780;-59
2020/12/30 09:55:14;;;;;;;;;2.00;1.00;19.90;70.40;;;18.13;52.40;102646.34;5091957;28;8884;-59
2020/12/30 09:57:41;;;;;;;;;0.00;0.00;19.70;70.20;;;18.11;53.05;102645.59;5091011;28;8831;-58
2020/12/30 10:00:10;;;;;;;;;2.00;1.50;19.60;70.30;;;18.11;53.33;102653.63;5096448;28;8778;-58
2020/12/30 10:02:37;;;;;;;;;0.00;0.00;19.70;70.30;;;18.09;52.99;102647.50;5089112;28;8810;-59
2020/12/30 10:05:03;;;;;;;;;0.00;0.00;19.70;70.50;;;18.06;53.47;102647.72;5092849;28;9532;-59
2020/12/30 10:07:30;;;;;;;;;0.00;0.00;19.50;70.20;;;18.06;53.15;102645.03;5093488;28;8784;-58
2020/12/30 10:09:57;;;;;;;;;0.50;0.50;19.80;70.60;;;18.03;53.50;102638.09;5093086;28;8807;-59
2020/12/30 10:12:24;;;;;;;;;0.50;0.00;19.60;70.50;;;18.01;53.13;102645.34;5091696;28;8864;-59
2020/12/30 10:14:51;;;;;;;;;0.25;0.00;19.40;70.60;;;17.99;53.09;102644.63;5094712;28;8776;-59
2020/12/30 10:17:18;;;;;;;;;0.00;0.00;19.60;70.70;;;17.98;53.47;102651.75;5091816;28;8820;-59
2020/12/30 10:19:45;;;;;;;;;0.00;0.00;19.60;70.70;;;17.96;53.86;102643.03;5091929;28;8783;-59
2020/12/30 10:22:13;;;;;;;;;0.00;0.00;19.60;70.70;;;17.93;53.13;102643.19;5091580;28;8823;-59
2020/12/30 10:24:44;;;;;;;;;1.00;1.00;19.60;70.70;;;17.94;53.79;102650.28;5090362;28;8792;-58
2020/12/30 10:27:13;;;;;;;;;0.00;0.00;19.50;70.60;;;17.93;54.24;102647.69;5089895;28;9536;-59
2020/12/30 10:29:40;;;;;;;;;0.00;0.00;19.50;71.00;;;17.90;54.08;102653.25;5091720;28;8873;-59
2020/12/30 10:32:07;;;;;;;;;0.00;0.00;19.50;70.60;;;17.88;53.27;102642.66;5096886;28;8792;-58